sensor_id;sensor_type;location;lat;lon;timestamp;temperature;humidity
72905;DHT22;61048;52.162;4.516;2023-10-19T16:58:08;18.60;70.00
72905;DHT22;61048;52.162;4.516;2023-10-19T17:00:36;17.90;71.30
72905;DHT22;61048;52.162;4.516;2023-10-19T17:03:07;17.60;73.40
72905;DHT22;61048;52.162;4.516;2023-10-19T17:05:35;17.50;72.80
72905;DHT22;61048;52.162;4.516;2023-10-19T17:08:02;17.40;73.60
72905;DHT22;61048;52.162;4.516;2023-10-19T17:10:29;17.30;72.60
72905;DHT22;61048;52.162;4.516;2023-10-19T17:12:56;17.40;73.20
72905;DHT22;61048;52.162;4.516;2023-10-19T17:15:24;17.40;72.60
72905;DHT22;61048;52.162;4.516;2023-10-19T17:17:52;17.40;73.20
72905;DHT22;61048;52.162;4.516;2023-10-19T17:20:19;17.30;73.30
72905;DHT22;61048;52.162;4.516;2023-10-19T17:22:46;17.30;73.00
72905;DHT22;61048;52.162;4.516;2023-10-19T17:25:14;17.30;73.40
72905;DHT22;61048;52.162;4.516;2023-10-19T17:27:41;17.30;73.60
72905;DHT22;61048;52.162;4.516;2023-10-19T17:30:09;17.30;72.10
72905;DHT22;61048;52.162;4.516;2023-10-19T17:32:40;17.30;72.70
72905;DHT22;61048;52.162;4.516;2023-10-19T17:35:08;17.30;72.20
72905;DHT22;61048;52.162;4.516;2023-10-19T17:37:35;17.30;72.90
72905;DHT22;61048;52.162;4.516;2023-10-19T17:40:02;17.30;73.30
72905;DHT22;61048;52.162;4.516;2023-10-19T17:42:29;17.30;73.20
72905;DHT22;61048;52.162;4.516;2023-10-19T17:44:57;17.30;74.60
72905;DHT22;61048;52.162;4.516;2023-10-19T17:47:24;17.10;75.00
72905;DHT22;61048;52.162;4.516;2023-10-19T17:49:54;17.00;76.50
72905;DHT22;61048;52.162;4.516;2023-10-19T17:52:21;16.90;77.80
72905;DHT22;61048;52.162;4.516;2023-10-19T17:54:48;16.80;77.80
72905;DHT22;61048;52.162;4.516;2023-10-19T17:57:15;16.80;76.90
72905;DHT22;61048;52.162;4.516;2023-10-19T17:59:42;16.90;77.00
72905;DHT22;61048;52.162;4.516;2023-10-19T18:02:09;16.80;77.50
72905;DHT22;61048;52.162;4.516;2023-10-19T18:04:39;16.80;76.80
72905;DHT22;61048;52.162;4.516;2023-10-19T18:07:08;16.80;77.10
72905;DHT22;61048;52.162;4.516;2023-10-19T18:09:35;16.90;76.10
72905;DHT22;61048;52.162;4.516;2023-10-19T18:12:04;16.90;76.20
72905;DHT22;61048;52.162;4.516;2023-10-19T18:14:31;17.00;76.40
72905;DHT22;61048;52.162;4.516;2023-10-19T18:16:58;16.90;76.30
72905;DHT22;61048;52.162;4.516;2023-10-19T18:19:26;16.90;75.80
72905;DHT22;61048;52.162;4.516;2023-10-19T18:21:54;16.80;76.20
72905;DHT22;61048;52.162;4.516;2023-10-19T18:24:23;16.60;78.10
72905;DHT22;61048;52.162;4.516;2023-10-19T18:26:50;16.50;77.60
72905;DHT22;61048;52.162;4.516;2023-10-19T18:29:17;16.60;77.80
72905;DHT22;61048;52.162;4.516;2023-10-19T18:32:44;16.60;77.10
72905;DHT22;61048;52.162;4.516;2023-10-19T18:35:11;17.10;74.00
72905;DHT22;61048;52.162;4.516;2023-10-19T18:37:37;17.20;73.40
72905;DHT22;61048;52.162;4.516;2023-10-19T18:40:06;17.30;73.00
72905;DHT22;61048;52.162;4.516;2023-10-19T18:42:33;17.40;72.70
72905;DHT22;61048;52.162;4.516;2023-10-19T18:45:01;17.40;72.40
72905;DHT22;61048;52.162;4.516;2023-10-19T18:47:30;17.40;72.50
72905;DHT22;61048;52.162;4.516;2023-10-19T18:50:00;17.50;72.70
72905;DHT22;61048;52.162;4.516;2023-10-19T18:52:29;17.40;72.70
72905;DHT22;61048;52.162;4.516;2023-10-19T18:54:57;17.40;72.30
72905;DHT22;61048;52.162;4.516;2023-10-19T18:57:24;17.50;71.80
72905;DHT22;61048;52.162;4.516;2023-10-19T18:59:51;17.50;71.90
72905;DHT22;61048;52.162;4.516;2023-10-19T19:02:18;17.50;72.30
72905;DHT22;61048;52.162;4.516;2023-10-19T19:04:45;17.50;72.10
72905;DHT22;61048;52.162;4.516;2023-10-19T19:07:13;17.50;72.00
72905;DHT22;61048;52.162;4.516;2023-10-19T19:09:40;17.50;72.10
72905;DHT22;61048;52.162;4.516;2023-10-19T19:12:07;17.40;71.80
72905;DHT22;61048;52.162;4.516;2023-10-19T19:14:34;17.50;72.00
72905;DHT22;61048;52.162;4.516;2023-10-19T19:17:01;17.50;71.30
72905;DHT22;61048;52.162;4.516;2023-10-19T19:19:30;17.50;71.90
72905;DHT22;61048;52.162;4.516;2023-10-19T19:21:57;17.50;71.60
72905;DHT22;61048;52.162;4.516;2023-10-19T19:24:25;17.50;72.10
72905;DHT22;61048;52.162;4.516;2023-10-19T19:26:52;17.50;72.20
72905;DHT22;61048;52.162;4.516;2023-10-19T19:29:19;17.50;71.80
72905;DHT22;61048;52.162;4.516;2023-10-19T19:31:48;17.60;71.60
72905;DHT22;61048;52.162;4.516;2023-10-19T19:34:16;17.50;71.50
72905;DHT22;61048;52.162;4.516;2023-10-19T19:36:43;17.50;71.80
72905;DHT22;61048;52.162;4.516;2023-10-19T19:39:12;17.50;71.80
72905;DHT22;61048;52.162;4.516;2023-10-19T19:41:44;17.50;71.50
72905;DHT22;61048;52.162;4.516;2023-10-19T19:44:12;17.50;71.80
72905;DHT22;61048;52.162;4.516;2023-10-19T19:46:39;17.50;71.90
72905;DHT22;61048;52.162;4.516;2023-10-19T19:49:06;17.50;71.90
72905;DHT22;61048;52.162;4.516;2023-10-19T19:51:35;17.50;72.10
72905;DHT22;61048;52.162;4.516;2023-10-19T19:54:01;17.50;71.80
72905;DHT22;61048;52.162;4.516;2023-10-19T19:56:29;17.50;71.80
72905;DHT22;61048;52.162;4.516;2023-10-19T19:58:58;17.50;71.60
72905;DHT22;61048;52.162;4.516;2023-10-19T20:01:25;17.50;71.90
72905;DHT22;61048;52.162;4.516;2023-10-19T20:03:52;17.50;71.50
72905;DHT22;61048;52.162;4.516;2023-10-19T20:06:19;17.50;71.60
72905;DHT22;61048;52.162;4.516;2023-10-19T20:08:45;17.50;71.30
72905;DHT22;61048;52.162;4.516;2023-10-19T20:11:20;17.50;71.30
72905;DHT22;61048;52.162;4.516;2023-10-19T20:13:47;17.40;71.70
72905;DHT22;61048;52.162;4.516;2023-10-19T20:16:15;17.40;71.60
72905;DHT22;61048;52.162;4.516;2023-10-19T20:18:42;17.40;71.40
72905;DHT22;61048;52.162;4.516;2023-10-19T20:21:09;17.40;71.60
72905;DHT22;61048;52.162;4.516;2023-10-19T20:23:36;17.40;71.20
72905;DHT22;61048;52.162;4.516;2023-10-19T20:26:03;17.40;71.40
72905;DHT22;61048;52.162;4.516;2023-10-19T20:28:30;17.40;71.40
72905;DHT22;61048;52.162;4.516;2023-10-19T20:30:58;17.40;71.90
72905;DHT22;61048;52.162;4.516;2023-10-19T20:33:27;17.40;71.30
72905;DHT22;61048;52.162;4.516;2023-10-19T20:35:54;17.40;71.50
72905;DHT22;61048;52.162;4.516;2023-10-19T20:38:20;17.40;71.70
72905;DHT22;61048;52.162;4.516;2023-10-19T20:40:49;17.40;72.00
72905;DHT22;61048;52.162;4.516;2023-10-19T20:43:17;17.40;71.40
72905;DHT22;61048;52.162;4.516;2023-10-19T20:45:46;17.40;71.80
72905;DHT22;61048;52.162;4.516;2023-10-19T20:48:14;17.40;71.40
72905;DHT22;61048;52.162;4.516;2023-10-19T20:50:43;17.40;71.20
72905;DHT22;61048;52.162;4.516;2023-10-19T20:55:41;17.60;71.70
72905;DHT22;61048;52.162;4.516;2023-10-19T20:58:08;17.50;71.20
72905;DHT22;61048;52.162;4.516;2023-10-19T21:00:36;17.60;70.50
72905;DHT22;61048;52.162;4.516;2023-10-19T21:03:04;17.70;70.50
72905;DHT22;61048;52.162;4.516;2023-10-19T21:05:31;17.70;70.20
72905;DHT22;61048;52.162;4.516;2023-10-19T21:07:59;17.80;70.20
72905;DHT22;61048;52.162;4.516;2023-10-19T21:10:26;17.80;69.90
72905;DHT22;61048;52.162;4.516;2023-10-19T21:12:53;17.80;70.20
72905;DHT22;61048;52.162;4.516;2023-10-19T21:15:20;17.80;70.30
72905;DHT22;61048;52.162;4.516;2023-10-19T21:17:48;17.80;70.20
72905;DHT22;61048;52.162;4.516;2023-10-19T21:20:15;17.80;70.30
72905;DHT22;61048;52.162;4.516;2023-10-19T21:22:43;17.80;70.30
72905;DHT22;61048;52.162;4.516;2023-10-19T21:25:13;17.80;70.30
72905;DHT22;61048;52.162;4.516;2023-10-19T21:27:40;17.80;70.20
72905;DHT22;61048;52.162;4.516;2023-10-19T21:30:08;17.80;70.20
72905;DHT22;61048;52.162;4.516;2023-10-19T21:32:36;17.80;70.20
72905;DHT22;61048;52.162;4.516;2023-10-19T21:37:31;18.10;70.10
72905;DHT22;61048;52.162;4.516;2023-10-19T21:39:58;17.90;70.20
72905;DHT22;61048;52.162;4.516;2023-10-19T21:42:26;17.90;70.20
72905;DHT22;61048;52.162;4.516;2023-10-19T21:44:53;17.90;70.40
72905;DHT22;61048;52.162;4.516;2023-10-19T21:47:20;17.90;70.30
72905;DHT22;61048;52.162;4.516;2023-10-19T21:49:50;17.90;70.30
72905;DHT22;61048;52.162;4.516;2023-10-19T21:52:18;17.90;70.30
72905;DHT22;61048;52.162;4.516;2023-10-19T21:54:46;17.90;70.30
72905;DHT22;61048;52.162;4.516;2023-10-19T21:57:14;17.90;70.30
72905;DHT22;61048;52.162;4.516;2023-10-19T21:59:42;17.90;70.20
72905;DHT22;61048;52.162;4.516;2023-10-19T22:02:09;17.90;70.20
72905;DHT22;61048;52.162;4.516;2023-10-19T22:04:36;17.80;70.10
